Time;durP1;ratioP1;P1;durP2;ratioP2;P2;SDS_P1;SDS_P2;PMS_P1;PMS_P2;Temp;Humidity;BMP_temperature;BMP_pressure;BME280_temperature;BME280_humidity;BME280_pressure;Samples;Min_cycle;Max_cycle;Signal;HPM_P1;HPM_P2
2022/11/17 00:00:33;;;;;;;7.45;3.55;;;;;;;1.93;93.84;97298.61;1604991;89;25834;-68
2022/11/17 00:02:59;;;;;;;8.30;3.33;;;;;;;1.89;93.48;97290.27;1604829;89;25588;-68
2022/11/17 00:05:26;;;;;;;4.85;2.42;;;;;;;1.84;93.49;97288.44;1605029;89;27417;-68
2022/11/17 00:07:52;;;;;;;5.92;2.58;;;;;;;1.82;93.59;97292.53;1604857;89;25741;-68
2022/11/17 00:10:19;;;;;;;5.62;2.75;;;;;;;1.74;93.54;97287.23;1604898;89;25534;-67
2022/11/17 00:15:31;;;;;;;2.85;1.80;;;;;;;1.65;93.94;97288.95;1604856;89;26430;-67
2022/11/17 00:23:45;;;;;;;6.12;3.52;;;;;;;1.65;94.64;97278.97;1677799;85;25627;-69
2022/11/17 00:25:57;;;;;;;8.28;5.55;;;;;;;1.72;94.80;97282.65;1675066;85;25726;-69
2022/11/17 00:28:24;;;;;;;8.90;4.37;;;;;;;1.77;94.73;97288.00;1677782;85;25591;-69
2022/11/17 00:36:24;;;;;;;7.33;3.15;;;;;;;1.74;94.56;97297.49;1677705;85;25684;-68
2022/11/17 00:38:51;;;;;;;5.92;3.72;;;;;;;1.67;94.44;97290.83;1677989;85;25685;-68
2022/11/17 00:41:18;;;;;;;4.35;2.37;;;;;;;1.61;94.95;97293.58;1678000;85;25656;-69
2022/11/17 00:43:44;;;;;;;5.17;2.33;;;;;;;1.54;95.04;97289.63;1678102;85;27558;-69
2022/11/17 00:46:11;;;;;;;6.08;3.35;;;;;;;1.52;95.24;97295.30;1678035;85;25482;-69
2022/11/17 00:48:38;;;;;;;6.53;4.03;;;;;;;1.52;95.54;97297.22;1677846;85;25441;-70
2022/11/17 00:51:06;;;;;;;8.08;4.65;;;;;;;1.57;95.90;97291.75;1677655;85;25873;-69
2022/11/17 00:53:32;;;;;;;11.22;5.33;;;;;;;1.59;95.74;97287.69;1683821;84;25406;-71
2022/11/17 00:55:59;;;;;;;5.25;3.10;;;;;;;1.61;95.60;97292.23;1687616;85;27457;-70
2022/11/17 00:58:25;;;;;;;9.55;5.55;;;;;;;1.61;95.65;97285.48;1687851;84;25651;-70
2022/11/17 01:00:51;;;;;;;6.03;3.60;;;;;;;1.59;95.52;97294.44;1687881;85;25430;-70
2022/11/17 01:03:18;;;;;;;8.60;4.85;;;;;;;1.62;95.77;97287.08;1687565;85;25710;-70
2022/11/17 01:05:44;;;;;;;6.92;4.37;;;;;;;1.62;95.66;97287.64;1687999;84;25735;-71
2022/11/17 01:08:11;;;;;;;9.45;4.62;;;;;;;1.62;95.68;97278.20;1687786;84;27551;-71
2022/11/17 01:10:37;;;;;;;4.80;2.95;;;;;;;1.66;95.88;97277.86;1687796;85;25426;-72
2022/11/17 01:13:03;;;;;;;4.72;2.90;;;;;;;1.68;95.76;97263.53;1688067;85;25615;-72
2022/11/17 01:15:29;;;;;;;6.42;3.55;;;;;;;1.62;95.65;97261.42;1687960;85;25728;-72
2022/11/17 01:17:56;;;;;;;6.28;3.85;;;;;;;1.66;95.73;97267.06;1687879;85;25771;-72
2022/11/17 01:20:22;;;;;;;4.70;2.62;;;;;;;1.70;95.94;97270.78;1688076;84;27368;-72
2022/11/17 01:22:48;;;;;;;4.15;2.98;;;;;;;1.69;95.64;97285.39;1687802;85;25698;-72
2022/11/17 01:25:15;;;;;;;3.62;2.52;;;;;;;1.68;95.57;97295.95;1687954;85;25694;-72
2022/11/17 01:27:42;;;;;;;5.78;3.00;;;;;;;1.69;95.53;97293.49;1687939;85;25837;-72
2022/11/17 01:30:11;;;;;;;3.90;2.77;;;;;;;1.69;95.46;97298.89;1687962;85;25692;-72
2022/11/17 01:32:37;;;;;;;5.92;3.67;;;;;;;1.65;95.34;97293.01;1687934;84;27550;-71
2022/11/17 01:35:05;;;;;;;6.87;3.77;;;;;;;1.66;95.38;97285.97;1687856;85;25667;-72
2022/11/17 01:37:31;;;;;;;7.35;4.08;;;;;;;1.64;95.24;97286.80;1687843;85;25441;-73
2022/11/17 01:39:58;;;;;;;5.33;3.60;;;;;;;1.69;95.31;97279.17;1687892;85;25710;-73
2022/11/17 01:42:26;;;;;;;5.33;2.98;;;;;;;1.72;95.27;97288.86;1688095;84;25720;-72
2022/11/17 01:44:57;;;;;;;6.55;3.85;;;;;;;1.69;95.00;97283.23;1687875;85;27432;-72
2022/11/17 01:47:47;;;;;;;4.95;3.10;;;;;;;1.72;95.22;97283.46;1687966;85;25476;-74
2022/11/17 01:50:39;;;;;;;6.92;3.27;;;;;;;1.75;95.00;97274.78;1686987;84;25637;-72
2022/11/17 01:53:10;;;;;;;7.45;3.87;;;;;;;1.72;94.71;97278.06;1686269;84;25660;-73
2022/11/17 01:55:55;;;;;;;3.67;2.45;;;;;;;1.72;94.93;97281.30;1688008;83;25677;-72
2022/11/17 01:58:31;;;;;;;6.95;4.22;;;;;;;1.67;94.50;97284.86;1687800;84;27532;-73
2022/11/17 02:00:57;;;;;;;4.37;2.42;;;;;;;1.67;94.81;97292.97;1687869;85;25718;-74
2022/11/17 02:03:26;;;;;;;4.10;2.20;;;;;;;1.72;95.00;97284.00;1687979;85;25623;-73
2022/11/17 02:06:28;;;;;;;2.65;1.70;;;;;;;1.67;94.46;97291.62;1687804;84;25684;-73
2022/11/17 02:08:57;;;;;;;3.10;2.05;;;;;;;1.67;94.73;97293.53;1687909;85;25469;-74
2022/11/17 02:11:25;;;;;;;4.12;2.60;;;;;;;1.67;94.69;97297.58;1688107;84;27431;-73
2022/11/17 02:13:54;;;;;;;4.95;3.33;;;;;;;1.67;94.78;97295.67;1687801;85;25683;-73
2022/11/17 02:16:20;;;;;;;2.85;1.42;;;;;;;1.70;94.92;97295.66;1687834;85;25702;-73
2022/11/17 02:18:48;;;;;;;3.92;2.90;;;;;;;1.68;94.76;97295.95;1687855;85;25740;-72
2022/11/17 02:21:38;;;;;;;2.00;1.70;;;;;;;1.72;94.97;97302.37;1687954;85;25427;-72
2022/11/17 02:24:37;;;;;;;4.85;2.65;;;;;;;1.75;94.78;97293.69;1687350;84;27472;-73
2022/11/17 02:27:42;;;;;;;3.02;2.20;;;;;;;1.70;94.70;97291.61;1687545;84;25727;-73
2022/11/17 02:30:12;;;;;;;5.37;2.98;;;;;;;1.72;94.82;97290.22;1687783;85;25474;-73
2022/11/17 02:33:01;;;;;;;3.30;1.75;;;;;;;1.73;94.83;97282.92;1687962;84;25787;-73
2022/11/17 02:35:41;;;;;;;3.95;2.85;;;;;;;1.71;94.71;97275.11;1687804;85;25660;-72
2022/11/17 02:38:22;;;;;;;1.75;1.35;;;;;;;1.71;94.69;97284.56;1687700;84;28144;-73
2022/11/17 02:41:06;;;;;;;5.12;2.22;;;;;;;1.70;94.72;97274.83;1688162;84;25763;-73
2022/11/17 02:46:24;;;;;;;5.80;2.83;;;;;;;1.69;94.59;97277.29;1687874;85;25607;-72
2022/11/17 02:49:08;;;;;;;3.47;2.12;;;;;;;1.68;94.59;97277.58;1687975;85;25639;-70
2022/11/17 02:51:37;;;;;;;5.08;3.10;;;;;;;1.63;94.32;97269.80;1688045;83;27499;-71
2022/11/17 02:54:04;;;;;;;4.92;2.70;;;;;;;1.56;94.35;97268.01;1687706;84;25573;-71
2022/11/17 02:56:31;;;;;;;6.30;2.62;;;;;;;1.57;94.74;97271.50;1687891;84;25679;-70
2022/11/17 02:59:01;;;;;;;2.72;1.75;;;;;;;1.52;94.57;97268.88;1687990;84;25672;-70
2022/11/17 03:02:01;;;;;;;4.15;2.62;;;;;;;1.44;94.76;97267.61;1688234;84;25667;-71
2022/11/17 03:04:56;;;;;;;3.83;2.77;;;;;;;1.44;95.13;97264.91;1687803;85;27440;-71
2022/11/17 03:07:46;;;;;;;3.85;2.65;;;;;;;1.47;95.07;97261.64;1688171;84;25615;-70
2022/11/17 03:10:24;;;;;;;5.05;2.98;;;;;;;1.48;95.14;97260.53;1687950;84;25623;-69
2022/11/17 03:13:17;;;;;;;4.78;1.92;;;;;;;1.48;95.12;97261.35;1667873;84;25794;-70
2022/11/17 03:16:05;;;;;;;3.33;2.30;;;;;;;1.51;95.22;97265.36;1620524;87;25799;-71
2022/11/17 03:19:09;;;;;;;2.95;1.60;;;;;;;1.53;95.14;97261.84;1618438;88;28014;-72
2022/11/17 03:21:43;;;;;;;2.37;1.62;;;;;;;1.54;95.06;97260.73;1620197;88;25679;-72
2022/11/17 03:24:20;;;;;;;3.65;2.47;;;;;;;1.52;95.08;97260.77;1620194;88;25667;-72
2022/11/17 03:26:58;;;;;;;2.98;2.00;;;;;;;1.50;95.21;97254.31;1620334;88;25841;-72
2022/11/17 03:29:28;;;;;;;3.10;2.20;;;;;;;1.50;95.14;97244.86;1620443;88;25873;-71
2022/11/17 03:31:59;;;;;;;2.22;1.72;;;;;;;1.47;95.27;97244.88;1620701;88;28495;-71
2022/11/17 03:34:29;;;;;;;1.85;1.27;;;;;;;1.43;95.44;97243.85;1620293;88;25553;-71
2022/11/17 03:37:00;;;;;;;3.60;2.33;;;;;;;1.43;95.59;97250.59;1598873;88;25871;-71
2022/11/17 03:39:31;;;;;;;;;;;;;;;1.43;95.70;97253.30;1622704;88;25704;-70
2022/11/17 03:42:06;;;;;;;2.08;1.60;;;;;;;1.43;95.64;97251.95;1620308;88;25730;-71
2022/11/17 03:44:37;;;;;;;4.30;2.45;;;;;;;1.43;95.79;97263.28;1618877;86;27457;-71
2022/11/17 03:47:06;;;;;;;4.35;2.08;;;;;;;1.44;95.76;97259.52;1620251;88;33718;-71
2022/11/17 03:50:03;;;;;;;2.08;1.35;;;;;;;1.47;95.68;97261.64;1620318;88;25877;-72
2022/11/17 03:52:31;;;;;;;4.10;2.40;;;;;;;1.47;95.77;97260.29;1660155;85;25802;-71
2022/11/17 03:54:59;;;;;;;5.22;1.95;;;;;;;1.49;95.87;97259.44;1687620;84;25648;-72
2022/11/17 03:57:58;;;;;;;3.35;2.05;;;;;;;1.52;95.79;97261.56;1687987;85;27324;-71
2022/11/17 04:00:24;;;;;;;4.15;2.77;;;;;;;1.52;95.53;97262.91;1687949;85;25468;-71
2022/11/17 04:03:00;;;;;;;2.47;1.10;;;;;;;1.56;95.72;97257.75;1688075;85;25763;-71
2022/11/17 04:05:24;;;;;;;4.12;1.87;;;;;;;1.54;95.47;97253.98;1686398;84;25658;-71
2022/11/17 04:07:51;;;;;;;2.15;1.60;;;;;;;1.47;95.45;97256.23;1688006;85;25588;-70
2022/11/17 04:10:20;;;;;;;4.40;3.35;;;;;;;1.49;95.68;97258.89;1687974;85;28121;-70
2022/11/17 04:18:03;;;;;;;2.92;1.75;;;;;;;1.57;95.60;97255.30;1687562;85;25659;-69
2022/11/17 04:20:34;;;;;;;1.92;1.10;;;;;;;1.52;95.58;97256.72;1687892;85;25651;-69
2022/11/17 04:23:07;;;;;;;3.30;1.98;;;;;;;1.56;95.76;97257.75;1687287;84;25983;-69
2022/11/17 04:28:37;;;;;;;2.55;1.50;;;;;;;1.57;95.45;97256.64;1687902;85;25439;-69
2022/11/17 04:31:27;;;;;;;2.47;1.92;;;;;;;1.56;95.57;97259.91;1687580;85;25756;-68
2022/11/17 04:33:59;;;;;;;3.85;2.00;;;;;;;1.54;95.60;97268.02;1687890;84;25464;-67
2022/11/17 04:36:33;;;;;;;1.95;1.37;;;;;;;1.55;95.82;97273.13;1686936;84;28441;-70
2022/11/17 04:39:00;;;;;;;2.12;1.67;;;;;;;1.56;95.74;97278.00;1687933;84;25689;-68
2022/11/17 04:44:16;;;;;;;3.70;2.80;;;;;;;1.58;95.70;97277.17;1687594;85;25426;-70
2022/11/17 04:46:44;;;;;;;1.80;1.40;;;;;;;1.62;95.76;97279.55;1687662;84;25624;-66
2022/11/17 04:49:13;;;;;;;2.12;1.42;;;;;;;1.63;95.67;97275.20;1687794;84;28384;-67
2022/11/17 04:51:39;;;;;;;4.33;2.50;;;;;;;1.63;95.77;97272.50;1687878;84;25603;-72
2022/11/17 04:54:08;;;;;;;3.02;1.90;;;;;;;1.68;95.78;97273.53;1687531;84;25615;-67
2022/11/17 04:56:36;;;;;;;3.10;2.15;;;;;;;1.69;95.74;97272.42;1687984;84;26378;-66
2022/11/17 04:59:03;;;;;;;22.58;14.23;;;;;;;1.71;95.48;97266.20;1687548;85;25662;-66
2022/11/17 05:01:30;;;;;;;3.08;1.90;;;;;;;1.73;95.55;97266.16;1687595;85;27523;-70
2022/11/17 05:04:03;;;;;;;4.05;2.90;;;;;;;1.78;95.48;97267.98;1687881;84;25626;-66
2022/11/17 05:06:45;;;;;;;3.35;1.87;;;;;;;1.81;95.17;97275.52;1688007;84;25687;-70
2022/11/17 05:09:15;;;;;;;2.25;1.80;;;;;;;1.84;95.10;97269.53;1687776;84;25630;-70
2022/11/17 05:14:29;;;;;;;3.72;2.70;;;;;;;1.83;94.38;97257.66;1687610;85;25592;-65
2022/11/17 05:17:05;;;;;;;150.72;51.55;;;;;;;1.84;94.71;97265.48;1687440;85;25422;-67
2022/11/17 05:19:39;;;;;;;43.63;23.27;;;;;;;1.87;94.73;97264.89;1687581;84;25751;-65
2022/11/17 05:23:52;;;;;;;3.92;2.58;;;;;;;1.84;94.54;97262.77;1687922;85;26388;-65
2022/11/17 05:24:35;;;;;;;6.62;2.52;;;;;;;1.84;94.53;97266.05;1685922;85;25505;-72
2022/11/17 05:27:02;;;;;;;5.42;3.05;;;;;;;1.86;94.45;97266.53;1687599;85;27513;-65
2022/11/17 05:29:28;;;;;;;4.20;2.33;;;;;;;1.87;94.54;97269.48;1687422;85;25677;-69
2022/11/17 05:31:55;;;;;;;9.48;6.35;;;;;;;1.87;94.56;97273.00;1687594;84;25669;-66
2022/11/17 05:34:21;;;;;;;10.88;4.75;;;;;;;1.88;94.53;97271.90;1687925;85;25737;-66
2022/11/17 05:36:47;;;;;;;22.22;8.40;;;;;;;1.93;94.45;97279.13;1687616;85;25424;-65
2022/11/17 05:39:14;;;;;;;2.10;1.40;;;;;;;1.94;94.51;97277.25;1687520;84;27424;-66
2022/11/17 05:41:41;;;;;;;3.95;1.60;;;;;;;1.97;94.26;97278.02;1687715;84;25565;-68
2022/11/17 05:44:08;;;;;;;8.70;4.10;;;;;;;1.97;94.20;97274.77;1687698;84;25659;-65
2022/11/17 05:46:34;;;;;;;3.42;1.98;;;;;;;1.96;94.14;97275.06;1687535;85;25786;-66
2022/11/17 05:49:00;;;;;;;4.25;2.77;;;;;;;1.96;94.34;97275.84;1687610;85;25474;-65
2022/11/17 05:51:27;;;;;;;1.98;1.32;;;;;;;1.95;94.02;97284.24;1687544;85;27459;-66
2022/11/17 05:53:53;;;;;;;6.85;3.37;;;;;;;1.91;94.15;97281.34;1687598;84;25517;-66
2022/11/17 05:56:39;;;;;;;3.25;2.10;;;;;;;1.93;94.35;97281.83;1687564;85;25608;-65
2022/11/17 05:59:22;;;;;;;3.20;2.02;;;;;;;1.96;94.38;97288.01;1687641;84;25879;-72
2022/11/17 06:01:54;;;;;;;3.60;2.33;;;;;;;1.95;94.40;97281.00;1687610;85;25666;-71
2022/11/17 06:04:20;;;;;;;5.17;2.40;;;;;;;1.97;94.18;97286.94;1686361;84;27385;-66
2022/11/17 06:06:47;;;;;;;2.35;1.50;;;;;;;1.94;93.86;97278.59;1687859;85;25616;-67
2022/11/17 06:09:14;;;;;;;3.60;1.90;;;;;;;1.92;94.11;97292.39;1687502;84;25583;-66
2022/11/17 06:11:40;;;;;;;3.92;2.80;;;;;;;1.90;94.14;97293.22;1687456;84;25745;-66
2022/11/17 06:14:07;;;;;;;2.95;1.60;;;;;;;1.92;94.29;97286.98;1687559;84;25642;-67
2022/11/17 06:16:37;;;;;;;3.37;2.47;;;;;;;1.95;94.43;97298.56;1688105;85;27404;-65
2022/11/17 06:19:15;;;;;;;2.58;2.33;;;;;;;1.92;94.31;97293.75;1687719;85;25499;-65
2022/11/17 06:21:41;;;;;;;3.58;2.02;;;;;;;1.91;94.23;97290.80;1687784;85;25410;-67
2022/11/17 06:24:08;;;;;;;2.83;1.92;;;;;;;1.90;94.35;97291.87;1687638;85;25761;-65
2022/11/17 06:26:35;;;;;;;3.77;2.10;;;;;;;1.86;94.36;97293.02;1687646;85;25683;-69
2022/11/17 06:29:04;;;;;;;6.03;3.08;;;;;;;1.87;94.55;97297.31;1687674;85;27514;-66
2022/11/17 06:31:31;;;;;;;5.30;3.65;;;;;;;1.91;94.61;97298.09;1688030;85;25741;-68
2022/11/17 06:34:01;;;;;;;2.45;1.80;;;;;;;1.91;94.53;97299.44;1687946;84;25655;-67
2022/11/17 06:36:29;;;;;;;3.45;2.15;;;;;;;1.90;94.52;97301.33;1687888;84;26124;-67
2022/11/17 06:38:55;;;;;;;2.80;2.00;;;;;;;1.92;94.61;97307.25;1687947;84;25542;-69
2022/11/17 06:41:22;;;;;;;4.67;2.87;;;;;;;1.93;94.47;97299.96;1687617;84;27434;-66
2022/11/17 06:43:48;;;;;;;3.52;2.35;;;;;;;1.93;94.47;97299.39;1687632;85;25702;-66
2022/11/17 06:46:15;;;;;;;3.58;2.62;;;;;;;1.98;94.51;97298.52;1687696;84;25670;-72
2022/11/17 06:48:41;;;;;;;5.30;3.20;;;;;;;1.99;94.52;97295.53;1687656;84;25789;-66
2022/11/17 06:51:08;;;;;;;5.58;3.95;;;;;;;2.02;94.40;97292.81;1687698;84;25658;-66
2022/11/17 06:53:34;;;;;;;6.17;3.62;;;;;;;2.04;94.32;97285.77;1687686;85;27456;-69
2022/11/17 06:58:28;;;;;;;5.40;3.25;;;;;;;1.99;93.94;97299.59;1677803;85;25781;-67
2022/11/17 07:01:05;;;;;;;4.83;2.47;;;;;;;1.99;94.36;97299.59;1677773;85;25684;-67
2022/11/17 07:03:34;;;;;;;7.10;4.03;;;;;;;2.00;94.42;97295.81;1677945;85;25508;-67
2022/11/17 07:06:02;;;;;;;3.70;2.42;;;;;;;2.03;94.52;97302.52;1677552;85;27407;-66
2022/11/17 07:08:29;;;;;;;5.97;4.00;;;;;;;2.04;94.33;97296.58;1677779;85;25444;-67
2022/11/17 07:11:12;;;;;;;7.45;5.00;;;;;;;2.04;94.20;97291.17;1677681;85;25706;-67
2022/11/17 07:13:39;;;;;;;4.97;2.58;;;;;;;2.04;94.42;97289.83;1677800;85;25795;-67
2022/11/17 07:16:11;;;;;;;3.83;2.70;;;;;;;1.96;93.98;97287.22;1677585;85;25609;-66
2022/11/17 07:18:42;;;;;;;4.12;2.60;;;;;;;1.94;94.38;97295.63;1676244;85;27860;-74
2022/11/17 07:21:12;;;;;;;3.58;1.50;;;;;;;1.94;94.45;97309.67;1677712;85;25831;-68
2022/11/17 07:23:41;;;;;;;2.25;1.30;;;;;;;1.97;94.23;97305.03;1677930;85;30046;-67
2022/11/17 07:26:08;;;;;;;1.32;1.17;;;;;;;1.98;93.81;97307.45;1677855;85;25887;-68
2022/11/17 07:28:35;;;;;;;0.60;0.50;;;;;;;1.96;93.60;97314.24;1677551;85;25686;-68
2022/11/17 07:31:05;;;;;;;1.02;0.85;;;;;;;1.95;93.77;97320.19;1677560;85;27450;-68
2022/11/17 07:33:31;;;;;;;1.75;1.17;;;;;;;1.96;93.62;97310.97;1677762;85;25747;-67
2022/11/17 07:36:09;;;;;;;1.45;1.20;;;;;;;1.99;93.26;97308.26;1677523;85;25616;-68
2022/11/17 07:38:38;;;;;;;1.95;1.20;;;;;;;1.96;92.94;97306.14;1677876;85;25696;-67
2022/11/17 07:41:06;;;;;;;1.87;1.10;;;;;;;1.95;92.93;97316.66;1677550;85;25739;-68
2022/11/17 07:43:34;;;;;;;3.90;1.72;;;;;;;1.95;93.03;97318.83;1677541;85;27428;-67
2022/11/17 07:46:06;;;;;;;13.55;4.58;;;;;;;1.99;92.83;97321.77;1677948;85;25608;-69
2022/11/17 07:48:33;;;;;;;5.53;2.08;;;;;;;2.02;92.98;97319.84;1677135;85;25430;-66
2022/11/17 07:51:02;;;;;;;22.82;7.03;;;;;;;2.08;93.00;97321.92;1677570;85;25753;-67
2022/11/17 07:53:30;;;;;;;6.70;2.62;;;;;;;2.07;92.83;97321.11;1677590;85;25676;-67
2022/11/17 07:55:58;;;;;;;66.80;29.20;;;;;;;2.06;92.50;97321.39;1677510;84;27438;-67
2022/11/17 07:58:24;;;;;;;56.70;14.60;;;;;;;2.09;92.55;97327.57;1677190;85;27319;-67
2022/11/17 08:00:51;;;;;;;17.32;5.30;;;;;;;2.12;92.77;97333.75;1677902;85;25726;-67
2022/11/17 08:03:17;;;;;;;35.78;8.33;;;;;;;2.14;92.67;97331.56;1677396;85;25785;-67
2022/11/17 08:05:44;;;;;;;13.65;4.53;;;;;;;2.19;92.21;97331.48;1677783;85;25631;-66
2022/11/17 08:08:12;;;;;;;16.82;4.75;;;;;;;2.19;91.95;97336.10;1677555;85;27466;-67
2022/11/17 08:10:38;;;;;;;16.77;4.35;;;;;;;2.19;91.77;97330.70;1677660;85;25904;-67
2022/11/17 08:13:06;;;;;;;4.25;1.60;;;;;;;2.22;91.63;97340.93;1677524;85;25569;-67
2022/11/17 08:15:33;;;;;;;12.85;3.67;;;;;;;2.17;90.95;97339.09;1677585;85;26757;-67
2022/11/17 08:18:00;;;;;;;18.50;5.50;;;;;;;2.19;91.26;97334.19;1677473;85;25431;-67
2022/11/17 08:20:28;;;;;;;29.67;7.00;;;;;;;2.19;91.29;97335.53;1677906;85;27459;-68
2022/11/17 08:22:55;;;;;;;27.35;6.30;;;;;;;2.19;91.04;97333.40;1677864;85;25881;-68
2022/11/17 08:25:25;;;;;;;19.85;5.47;;;;;;;2.20;91.17;97336.34;1677556;85;25477;-67
2022/11/17 08:27:56;;;;;;;21.55;5.40;;;;;;;2.22;91.24;97339.58;1677876;85;25804;-67
2022/11/17 08:30:24;;;;;;;5.05;2.45;;;;;;;2.21;90.94;97336.06;1677442;85;25748;-67
2022/11/17 08:32:54;;;;;;;22.95;4.30;;;;;;;2.18;90.44;97343.94;1677561;85;27978;-67
2022/11/17 08:35:24;;;;;;;4.60;1.50;;;;;;;2.15;90.44;97344.52;1677667;85;25663;-67
2022/11/17 08:37:50;;;;;;;9.48;2.50;;;;;;;2.12;90.29;97339.97;1677774;85;25670;-67
2022/11/17 08:40:20;;;;;;;21.93;3.95;;;;;;;2.10;90.36;97335.39;1677435;85;25708;-68
2022/11/17 08:42:50;;;;;;;2.80;1.47;;;;;;;2.11;90.26;97332.96;1677516;85;25746;-68
2022/11/17 08:45:17;;;;;;;1.95;1.00;;;;;;;2.13;90.51;97324.56;1677695;85;26863;-68
2022/11/17 08:47:43;;;;;;;30.45;7.28;;;;;;;2.11;90.27;97326.74;1677773;85;25770;-68
2022/11/17 08:50:10;;;;;;;10.28;3.58;;;;;;;2.10;90.82;97338.66;1677585;85;25481;-67
2022/11/17 08:52:37;;;;;;;8.35;3.17;;;;;;;2.08;90.53;97348.94;1677462;85;25800;-69
2022/11/17 08:55:05;;;;;;;16.25;4.97;;;;;;;2.07;90.63;97353.53;1678272;84;25410;-68
2022/11/17 08:57:33;;;;;;;1.95;1.42;;;;;;;2.09;91.06;97355.95;1687847;84;27318;-68
2022/11/17 08:59:59;;;;;;;16.75;4.97;;;;;;;2.09;90.02;97350.54;1687627;84;25715;-68
2022/11/17 09:02:26;;;;;;;3.02;1.92;;;;;;;2.06;90.12;97347.88;1687987;84;25706;-68
2022/11/17 09:04:53;;;;;;;10.08;4.05;;;;;;;2.00;90.00;97353.91;1687704;85;25610;-68
2022/11/17 09:07:19;;;;;;;3.15;1.55;;;;;;;2.00;90.30;97356.61;1687580;84;25469;-68
2022/11/17 09:09:47;;;;;;;8.93;3.33;;;;;;;1.98;89.83;97353.38;1687966;84;27483;-68
2022/11/17 09:12:15;;;;;;;12.23;4.17;;;;;;;1.92;89.89;97346.97;1687574;84;25473;-68
2022/11/17 09:14:42;;;;;;;6.67;2.67;;;;;;;1.92;89.90;97350.48;1687643;84;25516;-68
2022/11/17 09:17:09;;;;;;;1.80;1.30;;;;;;;1.95;90.18;97358.55;1687562;85;25776;-68
2022/11/17 09:19:35;;;;;;;11.28;3.65;;;;;;;1.92;89.25;97353.72;1687591;84;25426;-69
2022/11/17 09:22:02;;;;;;;6.78;3.22;;;;;;;1.87;89.11;97362.69;1687556;85;27506;-68
2022/11/17 09:24:28;;;;;;;6.33;2.80;;;;;;;1.85;89.04;97360.30;1687870;85;25610;-69
2022/11/17 09:27:12;;;;;;;10.98;3.33;;;;;;;1.88;88.95;97365.67;1687508;84;25514;-69
2022/11/17 09:29:55;;;;;;;5.58;2.67;;;;;;;1.88;88.52;97362.97;1687577;84;25483;-68
2022/11/17 09:32:27;;;;;;;7.67;2.95;;;;;;;1.81;88.43;97363.87;1686950;84;25517;-68
2022/11/17 09:34:50;;;;;;;1.32;1.05;;;;;;;1.77;87.95;97362.28;1686882;84;25909;-66
2022/11/17 09:37:16;;;;;;;5.90;2.45;;;;;;;1.73;88.07;97363.95;1687456;84;25477;-66
2022/11/17 09:39:43;;;;;;;2.70;1.42;;;;;;;1.77;88.68;97364.98;1687519;85;25727;-66
2022/11/17 09:42:15;;;;;;;3.42;1.40;;;;;;;1.80;88.31;97369.81;1687578;85;26613;-66
2022/11/17 09:44:55;;;;;;;4.53;2.20;;;;;;;1.83;88.68;97367.88;1687979;85;25710;-66
2022/11/17 09:47:49;;;;;;;3.20;1.07;;;;;;;1.88;88.81;97373.77;1688073;84;28137;-67
2022/11/17 09:50:38;;;;;;;2.15;1.67;;;;;;;1.88;88.12;97369.16;1685324;85;25648;-67
2022/11/17 09:53:16;;;;;;;2.87;1.82;;;;;;;1.89;88.32;97371.32;1678755;85;25535;-67
2022/11/17 09:55:49;;;;;;;1.77;1.30;;;;;;;1.80;86.91;97371.16;1687414;84;25830;-66
2022/11/17 09:58:30;;;;;;;6.55;2.42;;;;;;;1.78;86.89;97374.68;1688279;85;25567;-66
2022/11/17 10:00:58;;;;;;;2.65;1.65;;;;;;;1.76;87.69;97368.78;1687832;85;27423;-67
2022/11/17 10:03:32;;;;;;;3.45;2.00;;;;;;;1.79;87.33;97367.39;1687709;84;25418;-67
2022/11/17 10:06:07;;;;;;;4.92;2.40;;;;;;;1.75;87.19;97371.20;1687922;85;25618;-68
2022/11/17 10:08:47;;;;;;;4.00;2.17;;;;;;;1.79;87.58;97361.98;1687004;82;25869;-67
2022/11/17 10:11:31;;;;;;;2.02;1.20;;;;;;;1.80;87.53;97356.30;1688061;84;25462;-67
2022/11/17 10:14:14;;;;;;;3.45;1.60;;;;;;;1.82;87.37;97330.35;1687582;85;27499;-67
2022/11/17 10:16:51;;;;;;;2.70;1.75;;;;;;;1.88;87.59;97360.27;1687596;84;25726;-67
2022/11/17 10:19:23;;;;;;;2.77;1.72;;;;;;;1.86;86.58;97357.85;1687951;84;25484;-67
2022/11/17 10:22:00;;;;;;;2.22;1.30;;;;;;;1.90;87.19;97360.77;1687739;84;26151;-67
2022/11/17 10:24:43;;;;;;;1.70;1.12;;;;;;;1.93;86.42;97359.41;1687204;84;25717;-67
2022/11/17 10:27:26;;;;;;;3.30;1.80;;;;;;;1.89;85.46;97344.30;1687563;85;28012;-67
2022/11/17 10:30:03;;;;;;;5.33;2.33;;;;;;;1.92;85.73;97360.47;1687599;84;25773;-68
2022/11/17 10:32:51;;;;;;;8.40;3.62;;;;;;;1.93;86.12;97364.23;1688056;85;25744;-68
2022/11/17 10:35:29;;;;;;;6.35;3.55;;;;;;;1.99;86.09;97371.76;1687547;83;25726;-67
2022/11/17 10:38:07;;;;;;;1.92;1.20;;;;;;;2.01;85.81;97380.36;1687797;85;25564;-67
2022/11/17 10:40:41;;;;;;;4.58;1.82;;;;;;;2.00;85.29;97380.11;1686787;84;28517;-68
2022/11/17 10:43:16;;;;;;;1.90;1.40;;;;;;;2.05;85.97;97367.90;1686995;84;25520;-68
2022/11/17 10:45:53;;;;;;;1.80;1.52;;;;;;;2.08;85.56;97363.81;1687799;85;25707;-68
2022/11/17 10:48:38;;;;;;;2.60;1.42;;;;;;;2.08;85.15;97361.92;1687378;84;25731;-67
2022/11/17 10:51:19;;;;;;;2.70;1.52;;;;;;;2.08;84.92;97356.52;1687524;85;25588;-67
2022/11/17 10:54:17;;;;;;;4.83;2.80;;;;;;;2.07;85.04;97356.23;1688032;85;27429;-68
2022/11/17 10:56:51;;;;;;;1.85;1.22;;;;;;;2.09;85.03;97355.95;1687386;84;25604;-68
2022/11/17 10:59:32;;;;;;;2.50;1.42;;;;;;;2.09;84.83;97345.14;1688102;84;25699;-68
2022/11/17 11:02:20;;;;;;;4.42;2.25;;;;;;;2.09;85.02;97349.19;1687930;84;26331;-68
2022/11/17 11:04:47;;;;;;;1.82;1.22;;;;;;;2.10;85.20;97344.06;1687619;85;25709;-68
2022/11/17 11:07:23;;;;;;;2.17;1.07;;;;;;;2.11;84.80;97356.47;1687665;84;27416;-69
2022/11/17 11:10:04;;;;;;;2.92;1.60;;;;;;;2.11;84.61;97350.53;1687591;85;25605;-69
2022/11/17 11:12:51;;;;;;;3.92;2.02;;;;;;;2.17;85.00;97346.39;1688229;84;25510;-69
2022/11/17 11:15:23;;;;;;;5.87;3.47;;;;;;;2.27;85.42;97344.89;1598709;89;25857;-69
2022/11/17 11:17:50;;;;;;;3.65;2.40;;;;;;;2.39;85.73;97352.59;1598847;89;25902;-69
2022/11/17 11:20:22;;;;;;;5.50;2.52;;;;;;;2.47;85.50;97349.22;1598748;89;27477;-70
2022/11/17 11:23:00;;;;;;;4.35;2.58;;;;;;;2.49;85.34;97352.98;1598622;89;25653;-69
2022/11/17 11:25:48;;;;;;;4.35;2.33;;;;;;;2.45;84.62;97358.73;1597310;89;25768;-69
2022/11/17 11:28:35;;;;;;;4.25;2.33;;;;;;;2.32;85.11;97369.16;1598925;89;26333;-69
2022/11/17 11:31:43;;;;;;;2.25;1.55;;;;;;;2.25;85.02;97364.67;1598626;89;25558;-69
2022/11/17 11:34:30;;;;;;;2.45;1.52;;;;;;;2.20;84.75;97368.78;1599055;89;27475;-69
2022/11/17 11:37:05;;;;;;;2.77;1.27;;;;;;;2.04;84.20;97360.87;1595528;89;25583;-69
2022/11/17 11:40:05;;;;;;;1.55;1.20;;;;;;;2.00;84.90;97364.72;1598597;89;25639;-70
2022/11/17 11:42:43;;;;;;;1.83;1.33;;;;;;;1.95;85.05;97366.66;1599246;89;26313;-70
2022/11/17 11:45:21;;;;;;;3.52;2.30;;;;;;;1.94;85.21;97369.11;1598318;89;25541;-70
2022/11/17 11:48:09;;;;;;;4.03;2.72;;;;;;;1.94;85.35;97379.37;1598899;89;27422;-70
2022/11/17 11:51:05;;;;;;;5.03;2.77;;;;;;;1.99;85.79;97380.65;1598546;89;25778;-70
2022/11/17 11:53:49;;;;;;;3.00;1.77;;;;;;;2.02;84.63;97376.58;1671862;85;25530;-70
2022/11/17 11:56:26;;;;;;;1.62;1.42;;;;;;;2.07;84.86;97373.80;1694328;81;26377;-70
2022/11/17 11:58:58;;;;;;;3.05;1.80;;;;;;;2.13;84.56;97379.97;1711237;83;25647;-70
2022/11/17 12:01:30;;;;;;;5.47;2.85;;;;;;;2.16;84.45;97371.25;1716196;81;27452;-71
2022/11/17 12:04:29;;;;;;;3.33;1.85;;;;;;;2.19;84.81;97373.38;1763630;81;25890;-70
2022/11/17 12:07:16;;;;;;;5.62;2.90;;;;;;;2.17;84.46;97373.42;1765035;81;25569;-70
2022/11/17 12:09:57;;;;;;;3.33;1.62;;;;;;;2.16;84.57;97375.30;1764967;80;25748;-70
2022/11/17 12:12:36;;;;;;;8.30;2.85;;;;;;;2.18;84.76;97371.78;1765076;80;32248;-70
2022/11/17 12:15:23;;;;;;;6.78;2.62;;;;;;;2.12;84.80;97372.40;1764302;81;27403;-70
2022/11/17 12:18:17;;;;;;;6.65;3.52;;;;;;;2.08;84.64;97366.51;1764084;81;25609;-70
2022/11/17 12:20:54;;;;;;;5.05;2.95;;;;;;;2.12;85.23;97363.48;1765032;80;25739;-70
2022/11/17 12:23:43;;;;;;;10.20;4.28;;;;;;;2.05;84.05;97376.01;1764620;81;25771;-70
2022/11/17 12:26:27;;;;;;;4.22;2.58;;;;;;;1.98;84.82;97372.83;1764694;81;25689;-71
2022/11/17 12:29:24;;;;;;;9.60;4.60;;;;;;;1.87;84.05;97368.91;1764335;81;27937;-71
2022/11/17 12:32:00;;;;;;;4.70;2.98;;;;;;;1.85;84.59;97368.41;1764490;81;25895;-71
2022/11/17 12:34:32;;;;;;;3.00;2.05;;;;;;;1.89;84.86;97369.97;1764919;81;25660;-71
2022/11/17 12:37:25;;;;;;;5.20;2.35;;;;;;;1.94;84.42;97370.45;1764676;81;25737;-70
2022/11/17 12:40:07;;;;;;;3.90;2.58;;;;;;;1.95;84.63;97374.22;1764148;81;25604;-71
2022/11/17 12:42:35;;;;;;;7.53;3.30;;;;;;;1.99;84.78;97375.81;1765081;80;27381;-71